createdAt,value
2022-11-02T00:00:11.677Z,24.24
2022-11-02T00:01:11.851Z,24.24
2022-11-02T00:02:11.758Z,24.22
2022-11-02T00:03:11.680Z,24.22
2022-11-02T00:04:11.606Z,24.22
2022-11-02T00:05:11.685Z,24.21
2022-11-02T00:06:11.591Z,24.21
2022-11-02T00:07:11.579Z,24.22
2022-11-02T00:08:11.594Z,24.20
2022-11-02T00:09:11.540Z,24.21
2022-11-02T00:10:11.546Z,24.22
2022-11-02T00:11:11.579Z,24.21
2022-11-02T00:12:11.502Z,24.22
2022-11-02T00:13:11.501Z,24.21
2022-11-02T00:14:11.465Z,24.20
2022-11-02T00:15:11.477Z,24.20
2022-11-02T00:16:11.451Z,24.20
2022-11-02T00:17:11.484Z,24.21
2022-11-02T00:18:11.431Z,24.21
2022-11-02T00:19:11.405Z,24.21
2022-11-02T00:20:11.389Z,24.21
2022-11-02T00:21:11.526Z,24.21
2022-11-02T00:22:11.369Z,24.22
2022-11-02T00:23:11.426Z,24.20
2022-11-02T00:24:11.347Z,24.20
2022-11-02T00:25:11.342Z,24.20
2022-11-02T00:26:11.395Z,24.20
2022-11-02T00:27:11.336Z,24.20
2022-11-02T00:28:11.287Z,24.18
2022-11-02T00:29:11.357Z,24.16
2022-11-02T00:30:11.263Z,24.15
2022-11-02T00:31:11.243Z,24.16
2022-11-02T00:32:11.231Z,24.16
2022-11-02T00:33:11.223Z,24.15
2022-11-02T00:34:11.213Z,24.16
2022-11-02T00:35:11.236Z,24.13
2022-11-02T00:36:11.213Z,24.13
2022-11-02T00:37:11.157Z,24.12
2022-11-02T00:38:11.146Z,24.10
2022-11-02T00:39:11.153Z,24.10
2022-11-02T00:40:11.115Z,24.08
2022-11-02T00:41:11.240Z,24.09
2022-11-02T00:42:11.092Z,24.09
2022-11-02T00:43:11.074Z,24.08
2022-11-02T00:44:11.065Z,24.06
2022-11-02T00:45:11.050Z,24.06
2022-11-02T00:46:11.018Z,24.06
2022-11-02T00:47:11.091Z,24.06
2022-11-02T00:48:10.994Z,24.09
2022-11-02T00:49:10.978Z,24.06
2022-11-02T00:50:10.977Z,24.05
2022-11-02T00:51:10.962Z,24.05
2022-11-02T00:52:10.939Z,24.05
2022-11-02T00:53:10.966Z,24.02
2022-11-02T00:54:10.930Z,24.02
2022-11-02T00:55:10.919Z,24.03
2022-11-02T00:56:10.896Z,24.02
2022-11-02T00:57:10.882Z,24.03
2022-11-02T00:58:10.868Z,24.00
2022-11-02T00:59:10.873Z,23.98
2022-11-02T01:00:10.852Z,24.00
2022-11-02T01:01:10.908Z,24.00
2022-11-02T01:02:10.936Z,24.00
2022-11-02T01:03:10.782Z,24.00
2022-11-02T01:04:10.791Z,23.97
2022-11-02T01:05:10.778Z,23.97
2022-11-02T01:06:10.756Z,23.98
2022-11-02T01:07:10.733Z,23.98
2022-11-02T01:08:10.747Z,23.98
2022-11-02T01:09:10.707Z,23.97
2022-11-02T01:10:10.695Z,23.97
2022-11-02T01:11:10.852Z,23.97
2022-11-02T01:12:10.660Z,23.94
2022-11-02T01:13:10.664Z,23.94
2022-11-02T01:14:10.628Z,23.95
2022-11-02T01:15:10.635Z,23.95
2022-11-02T01:16:10.616Z,23.93
2022-11-02T01:17:10.630Z,23.91
2022-11-02T01:18:10.580Z,23.91
2022-11-02T01:19:10.570Z,23.88
2022-11-02T01:20:10.561Z,23.90
2022-11-02T01:21:10.532Z,23.91
2022-11-02T01:22:10.607Z,23.91
2022-11-02T01:23:10.552Z,23.91
2022-11-02T01:24:10.516Z,23.88
2022-11-02T01:25:10.473Z,23.91
2022-11-02T01:26:10.467Z,23.88
2022-11-02T01:27:10.466Z,23.88
2022-11-02T01:28:10.473Z,23.88
2022-11-02T01:29:10.467Z,23.87
2022-11-02T01:30:10.419Z,23.88
2022-11-02T01:31:10.418Z,23.87
2022-11-02T01:32:10.385Z,23.87
2022-11-02T01:33:10.372Z,23.87
2022-11-02T01:34:10.355Z,23.88
2022-11-02T01:35:10.392Z,23.85
2022-11-02T01:36:10.483Z,23.85
2022-11-02T01:37:10.321Z,23.85
2022-11-02T01:38:10.308Z,23.90
2022-11-02T01:39:10.283Z,23.85
2022-11-02T01:40:10.279Z,23.85
2022-11-02T01:41:10.318Z,23.85
2022-11-02T01:42:10.251Z,23.88
2022-11-02T01:43:10.243Z,23.84
2022-11-02T01:44:10.220Z,23.87
2022-11-02T01:45:10.207Z,23.85
2022-11-02T01:46:10.195Z,23.80
2022-11-02T01:47:10.200Z,23.84
2022-11-02T01:48:10.197Z,23.87
2022-11-02T01:49:10.153Z,23.85
2022-11-02T01:50:10.151Z,23.84
2022-11-02T01:51:10.118Z,23.83
2022-11-02T01:52:10.111Z,23.79
2022-11-02T01:53:10.129Z,23.79
2022-11-02T01:54:10.081Z,23.80
2022-11-02T01:55:10.062Z,23.80
2022-11-02T01:56:10.082Z,23.78
2022-11-02T01:57:10.031Z,23.79
2022-11-02T01:58:10.288Z,23.79
2022-11-02T01:59:10.032Z,23.76
2022-11-02T02:00:10.011Z,23.78
2022-11-02T02:01:10.046Z,23.78
2022-11-02T02:02:10.134Z,23.78
2022-11-02T02:03:09.951Z,23.79
2022-11-02T02:04:09.941Z,23.76
2022-11-02T02:05:09.955Z,23.79
2022-11-02T02:06:09.910Z,23.78
2022-11-02T02:07:09.895Z,23.76
2022-11-02T02:08:09.887Z,23.76
2022-11-02T02:09:09.877Z,23.75
2022-11-02T02:10:09.864Z,23.78
2022-11-02T02:11:09.882Z,23.75
2022-11-02T02:12:09.818Z,23.76
2022-11-02T02:13:09.814Z,23.75
2022-11-02T02:14:09.983Z,23.73
2022-11-02T02:15:09.799Z,23.73
2022-11-02T02:16:09.771Z,23.73
2022-11-02T02:17:09.949Z,23.73
2022-11-02T02:18:09.743Z,23.73
2022-11-02T02:19:09.737Z,23.73
2022-11-02T02:20:09.709Z,23.70
2022-11-02T02:21:09.698Z,23.70
2022-11-02T02:22:09.687Z,23.72
2022-11-02T02:23:09.813Z,23.72
2022-11-02T02:24:09.665Z,23.70
2022-11-02T02:25:09.642Z,23.70
2022-11-02T02:26:09.642Z,23.68
2022-11-02T02:27:09.611Z,23.70
2022-11-02T02:28:09.614Z,23.72
2022-11-02T02:29:09.661Z,23.70
2022-11-02T02:30:09.626Z,23.72
2022-11-02T02:31:09.573Z,23.69
2022-11-02T02:32:09.546Z,23.70
2022-11-02T02:33:09.539Z,23.70
2022-11-02T02:34:09.547Z,23.72
2022-11-02T02:35:09.561Z,23.70
2022-11-02T02:36:09.500Z,23.72
2022-11-02T02:37:09.467Z,23.69
2022-11-02T02:38:09.463Z,23.69
2022-11-02T02:39:09.450Z,23.68
2022-11-02T02:40:09.446Z,23.69
2022-11-02T02:41:09.459Z,23.66
2022-11-02T02:42:09.405Z,23.69
2022-11-02T02:43:09.377Z,23.66
2022-11-02T02:44:09.377Z,23.66
2022-11-02T02:45:09.365Z,23.68
2022-11-02T02:46:09.356Z,23.69
2022-11-02T02:47:09.375Z,23.68
2022-11-02T02:48:09.322Z,23.68
2022-11-02T02:49:09.305Z,23.69
2022-11-02T02:50:09.285Z,23.68
2022-11-02T02:51:09.280Z,23.66
2022-11-02T02:52:09.265Z,23.66
2022-11-02T02:53:09.274Z,23.69
2022-11-02T02:54:09.235Z,23.68
2022-11-02T02:55:09.223Z,23.70
2022-11-02T02:56:09.222Z,23.68
2022-11-02T02:57:09.217Z,23.68
2022-11-02T02:58:09.187Z,23.66
2022-11-02T02:59:09.207Z,23.69
2022-11-02T03:00:09.151Z,23.68
2022-11-02T03:01:09.140Z,23.68
2022-11-02T03:02:09.228Z,23.68
2022-11-02T03:03:09.137Z,23.68
2022-11-02T03:04:09.101Z,23.65
2022-11-02T03:05:09.133Z,23.69
2022-11-02T03:06:09.098Z,23.66
2022-11-02T03:07:09.056Z,23.68
2022-11-02T03:08:09.053Z,23.69
2022-11-02T03:09:09.028Z,23.66
2022-11-02T03:10:09.018Z,23.68
2022-11-02T03:11:09.077Z,23.68
2022-11-02T03:12:08.986Z,23.69
2022-11-02T03:13:08.981Z,23.69
2022-11-02T03:14:08.964Z,23.65
2022-11-02T03:15:08.950Z,23.66
2022-11-02T03:16:08.943Z,23.66
2022-11-02T03:17:08.937Z,23.66
2022-11-02T03:18:08.923Z,23.63
2022-11-02T03:19:08.886Z,23.65
2022-11-02T03:20:08.872Z,23.65
2022-11-02T03:21:08.867Z,23.65
2022-11-02T03:22:08.853Z,23.61
2022-11-02T03:23:08.915Z,23.61
2022-11-02T03:24:08.968Z,23.63
2022-11-02T03:25:08.823Z,23.63
2022-11-02T03:26:08.857Z,23.61
2022-11-02T03:27:08.814Z,23.63
2022-11-02T03:28:08.831Z,23.63
2022-11-02T03:29:08.841Z,23.63
2022-11-02T03:30:08.740Z,23.65
2022-11-02T03:31:08.735Z,23.65
2022-11-02T03:32:08.712Z,23.63
2022-11-02T03:33:08.717Z,23.63
2022-11-02T03:34:08.735Z,23.61
2022-11-02T03:35:08.708Z,23.61
2022-11-02T03:36:08.674Z,23.63
2022-11-02T03:38:08.620Z,23.66
2022-11-02T03:39:08.604Z,23.63
2022-11-02T03:40:08.603Z,23.63
2022-11-02T03:41:08.678Z,23.68
2022-11-02T03:42:08.595Z,23.66
2022-11-02T03:43:08.590Z,23.63
2022-11-02T03:44:08.582Z,23.65
2022-11-02T03:45:08.556Z,23.61
2022-11-02T03:46:08.569Z,23.65
2022-11-02T03:47:08.560Z,23.61
2022-11-02T03:48:08.542Z,23.61
2022-11-02T03:49:08.754Z,23.65
2022-11-02T03:50:08.480Z,23.61
2022-11-02T03:51:08.456Z,23.63
2022-11-02T03:52:08.444Z,23.68
2022-11-02T03:53:08.454Z,23.65
2022-11-02T03:54:08.439Z,23.61
2022-11-02T03:55:08.397Z,23.65
2022-11-02T03:56:08.382Z,23.66
2022-11-02T03:57:08.358Z,23.65
2022-11-02T03:58:08.409Z,23.66
2022-11-02T03:59:08.449Z,23.66
2022-11-02T04:00:08.441Z,23.66
2022-11-02T04:01:08.439Z,23.65
2022-11-02T04:02:08.377Z,23.65
2022-11-02T04:03:08.365Z,23.65
2022-11-02T04:04:08.288Z,23.65
2022-11-02T04:05:08.306Z,23.63
2022-11-02T04:06:08.328Z,23.68
2022-11-02T04:07:08.204Z,23.68
2022-11-02T04:08:08.413Z,23.66
2022-11-02T04:09:08.206Z,23.65
2022-11-02T04:10:08.213Z,23.66
2022-11-02T04:11:08.203Z,23.63
2022-11-02T04:12:08.177Z,23.63
2022-11-02T04:13:08.176Z,23.61
2022-11-02T04:14:08.168Z,23.60
2022-11-02T04:15:08.130Z,23.57
2022-11-02T04:16:08.089Z,23.61
2022-11-02T04:17:08.150Z,23.61
2022-11-02T04:18:08.240Z,23.58
2022-11-02T04:19:08.061Z,23.58
2022-11-02T04:20:08.079Z,23.57
2022-11-02T04:21:08.046Z,23.57
2022-11-02T04:22:08.044Z,23.58
2022-11-02T04:23:08.029Z,23.58
2022-11-02T04:24:08.028Z,23.61
2022-11-02T04:25:07.975Z,23.60
2022-11-02T04:26:07.962Z,23.61
2022-11-02T04:27:07.932Z,23.60
2022-11-02T04:28:07.990Z,23.60
2022-11-02T04:29:07.985Z,23.57
2022-11-02T04:30:07.900Z,23.57
2022-11-02T04:31:07.886Z,23.58
2022-11-02T04:32:07.877Z,23.58
2022-11-02T04:33:08.080Z,23.57
2022-11-02T04:34:07.871Z,23.57
2022-11-02T04:35:07.863Z,23.54
2022-11-02T04:36:07.960Z,23.57
2022-11-02T04:37:07.803Z,23.55
2022-11-02T04:38:08.272Z,23.55
2022-11-02T04:39:07.783Z,23.57
2022-11-02T04:40:07.759Z,23.58
2022-11-02T04:41:07.793Z,23.55
2022-11-02T04:42:07.748Z,23.55
2022-11-02T04:43:07.718Z,23.55
2022-11-02T04:44:08.285Z,23.57
2022-11-02T04:45:07.682Z,23.54
2022-11-02T04:46:07.691Z,23.54
2022-11-02T04:47:07.710Z,23.54
2022-11-02T04:48:07.877Z,23.54
2022-11-02T04:49:07.641Z,23.54
2022-11-02T04:50:07.617Z,23.57
2022-11-02T04:51:07.604Z,23.54
2022-11-02T04:52:07.600Z,23.57
2022-11-02T04:53:07.606Z,23.53
2022-11-02T04:54:07.583Z,23.54
2022-11-02T04:55:07.559Z,23.54
2022-11-02T04:56:07.535Z,23.53
2022-11-02T04:57:07.525Z,23.54
2022-11-02T04:58:07.673Z,23.55
2022-11-02T04:59:07.547Z,23.53
2022-11-02T05:00:07.488Z,23.51
2022-11-02T05:01:07.479Z,23.53
2022-11-02T05:02:07.562Z,23.53
2022-11-02T05:03:11.336Z,23.51
2022-11-02T05:04:08.495Z,23.54
2022-11-02T05:05:07.461Z,23.48
2022-11-02T05:06:07.448Z,23.48
2022-11-02T05:07:07.376Z,23.53
2022-11-02T05:08:07.612Z,23.53
2022-11-02T05:09:07.376Z,23.53
2022-11-02T05:10:07.379Z,23.51
2022-11-02T05:11:08.353Z,23.54
2022-11-02T05:12:07.333Z,23.51
2022-11-02T05:13:07.336Z,23.55
2022-11-02T05:14:07.331Z,23.55
2022-11-02T05:15:07.315Z,23.55
2022-11-02T05:16:07.309Z,23.51
2022-11-02T05:17:07.245Z,23.51
2022-11-02T05:18:07.894Z,23.54
2022-11-02T05:19:09.991Z,23.54
2022-11-02T05:20:07.214Z,23.51
2022-11-02T05:21:07.192Z,23.50
2022-11-02T05:22:07.270Z,23.50
2022-11-02T05:23:07.389Z,23.51
2022-11-02T05:24:07.145Z,23.48
2022-11-02T05:25:07.145Z,23.47
2022-11-02T05:26:07.121Z,23.53
2022-11-02T05:27:07.104Z,23.51
2022-11-02T05:28:07.136Z,23.51
2022-11-02T05:29:07.077Z,23.48
2022-11-02T05:30:07.066Z,23.50
2022-11-02T05:31:07.055Z,23.48
2022-11-02T05:32:07.043Z,23.48
2022-11-02T05:33:07.346Z,23.47
2022-11-02T05:34:07.169Z,23.47
2022-11-02T05:35:06.997Z,23.48
2022-11-02T05:36:06.999Z,23.47
2022-11-02T05:37:06.965Z,23.43
2022-11-02T05:38:07.043Z,23.47
2022-11-02T05:39:06.959Z,23.43
2022-11-02T05:40:06.936Z,23.42
2022-11-02T05:41:06.969Z,23.40
2022-11-02T05:42:06.897Z,23.40
2022-11-02T05:43:07.171Z,23.39
2022-11-02T05:44:06.868Z,23.40
2022-11-02T05:45:06.868Z,23.46
2022-11-02T05:46:06.861Z,23.46
2022-11-02T05:47:06.825Z,23.47
2022-11-02T05:48:06.804Z,23.46
2022-11-02T05:49:06.792Z,23.46
2022-11-02T05:50:06.797Z,23.50
2022-11-02T05:51:06.773Z,23.51
2022-11-02T05:52:06.806Z,23.50
2022-11-02T05:53:07.006Z,23.53
2022-11-02T05:54:06.718Z,23.54
2022-11-02T05:55:06.723Z,23.54
2022-11-02T05:56:06.699Z,23.57
2022-11-02T05:57:06.699Z,23.57
2022-11-02T05:58:06.706Z,23.58
2022-11-02T05:59:06.657Z,23.60
2022-11-02T06:00:06.653Z,23.60
2022-11-02T06:01:06.633Z,23.60
2022-11-02T06:02:06.631Z,23.61
2022-11-02T06:03:06.930Z,23.66
2022-11-02T06:04:06.691Z,23.65
2022-11-02T06:05:06.625Z,23.68
2022-11-02T06:06:06.572Z,23.65
2022-11-02T06:07:06.565Z,23.65
2022-11-02T06:08:06.524Z,23.69
2022-11-02T06:09:07.434Z,23.69
2022-11-02T06:10:06.560Z,23.69
2022-11-02T06:11:06.490Z,23.68
2022-11-02T06:12:06.473Z,23.70
2022-11-02T06:13:06.701Z,23.72
2022-11-02T06:14:06.443Z,23.73
2022-11-02T06:15:06.474Z,23.76
2022-11-02T06:16:06.474Z,23.75
2022-11-02T06:17:06.405Z,23.75
2022-11-02T06:18:06.385Z,23.73
2022-11-02T06:19:06.439Z,23.73
2022-11-02T06:20:06.364Z,23.75
2022-11-02T06:21:06.348Z,23.78
2022-11-02T06:22:06.357Z,23.76
2022-11-02T06:23:06.747Z,23.78
2022-11-02T06:24:06.298Z,23.76
2022-11-02T06:25:06.305Z,23.79
2022-11-02T06:26:06.292Z,23.79
2022-11-02T06:27:06.267Z,23.80
2022-11-02T06:28:06.292Z,23.83
2022-11-02T06:29:06.243Z,23.79
2022-11-02T06:30:06.240Z,23.79
2022-11-02T06:31:06.213Z,23.80
2022-11-02T06:32:06.192Z,23.83
2022-11-02T06:33:07.339Z,23.83
2022-11-02T06:34:06.214Z,23.83
2022-11-02T06:35:06.155Z,23.83
2022-11-02T06:36:06.146Z,23.84
2022-11-02T06:37:06.127Z,23.87
2022-11-02T06:38:06.119Z,23.85
2022-11-02T06:39:06.210Z,23.88
2022-11-02T06:40:06.158Z,23.87
2022-11-02T06:41:06.068Z,23.87
2022-11-02T06:42:06.048Z,23.87
2022-11-02T06:43:21.701Z,23.85
2022-11-02T06:44:07.033Z,23.88
2022-11-02T06:45:06.020Z,23.87
2022-11-02T06:46:06.048Z,23.87
2022-11-02T06:47:05.990Z,23.90
2022-11-02T06:48:05.967Z,23.93
2022-11-02T06:49:05.963Z,23.90
2022-11-02T06:50:05.959Z,23.90
2022-11-02T06:51:05.938Z,23.91
2022-11-02T06:52:05.961Z,23.91
2022-11-02T06:53:06.413Z,23.90
2022-11-02T06:54:08.655Z,23.91
2022-11-02T06:55:05.882Z,23.91
2022-11-02T06:56:05.868Z,23.93
2022-11-02T06:57:05.854Z,23.93
2022-11-02T06:58:05.864Z,23.90
2022-11-02T06:59:05.825Z,23.91
2022-11-02T07:00:05.892Z,23.93
2022-11-02T07:01:05.852Z,23.93
2022-11-02T07:02:06.076Z,23.91
2022-11-02T07:03:06.115Z,23.91
2022-11-02T07:04:05.790Z,23.94
2022-11-02T07:05:05.740Z,23.90
2022-11-02T07:06:11.056Z,23.94
2022-11-02T07:07:06.704Z,23.93
2022-11-02T07:08:05.697Z,23.94
2022-11-02T07:09:05.677Z,23.94
2022-11-02T07:10:05.705Z,23.97
2022-11-02T07:11:05.670Z,23.95
2022-11-02T07:12:05.643Z,23.95
2022-11-02T07:13:05.982Z,23.95
2022-11-02T07:14:05.622Z,23.97
2022-11-02T07:15:05.599Z,23.97
2022-11-02T07:16:05.623Z,23.98
2022-11-02T07:17:05.572Z,24.00
2022-11-02T07:18:05.553Z,24.03
2022-11-02T07:19:05.538Z,24.02
2022-11-02T07:20:05.535Z,24.02
2022-11-02T07:21:05.543Z,24.05
2022-11-02T07:22:05.540Z,24.05
2022-11-02T07:23:05.953Z,24.06
2022-11-02T07:24:05.472Z,24.03
2022-11-02T07:25:05.461Z,24.05
2022-11-02T07:26:05.454Z,24.05
2022-11-02T07:27:05.420Z,24.03
2022-11-02T07:28:05.458Z,24.06
2022-11-02T07:29:05.414Z,24.05
2022-11-02T07:30:05.387Z,24.05
2022-11-02T07:31:05.376Z,24.05
2022-11-02T07:32:05.363Z,24.05
2022-11-02T07:33:05.636Z,24.06
2022-11-02T07:34:05.364Z,24.06
2022-11-02T07:35:05.323Z,24.05
2022-11-02T07:36:05.296Z,24.05
2022-11-02T07:37:05.306Z,24.09
2022-11-02T07:38:05.294Z,24.08
2022-11-02T07:39:05.288Z,24.09
2022-11-02T07:40:05.417Z,24.09
2022-11-02T07:41:05.232Z,24.08
2022-11-02T07:43:05.564Z,24.06
2022-11-02T07:44:05.190Z,24.08
2022-11-02T07:45:05.194Z,24.09
2022-11-02T07:46:05.332Z,24.09
2022-11-02T07:47:05.151Z,24.12
2022-11-02T07:48:05.139Z,24.08
2022-11-02T07:49:05.126Z,24.10
2022-11-02T07:50:05.108Z,24.10
2022-11-02T07:51:05.103Z,24.09
2022-11-02T07:52:05.111Z,24.08
2022-11-02T07:53:05.459Z,24.10
2022-11-02T07:54:05.068Z,24.09
2022-11-02T07:55:05.037Z,24.09
2022-11-02T07:56:05.030Z,24.10
2022-11-02T07:57:05.033Z,24.09
2022-11-02T07:58:05.040Z,24.10
2022-11-02T07:59:04.993Z,24.10
2022-11-02T08:00:04.979Z,24.13
2022-11-02T08:01:04.958Z,24.09
2022-11-02T08:02:04.940Z,24.09
2022-11-02T08:03:05.335Z,24.12
2022-11-02T08:04:04.960Z,24.12
2022-11-02T08:05:04.901Z,24.13
2022-11-02T08:06:04.894Z,24.13
2022-11-02T08:07:04.897Z,24.12
2022-11-02T08:08:05.020Z,24.13
2022-11-02T08:09:04.846Z,24.13
2022-11-02T08:10:04.864Z,24.12
2022-11-02T08:11:04.841Z,24.13
2022-11-02T08:12:04.807Z,24.13
2022-11-02T08:13:04.795Z,24.12
2022-11-02T08:14:04.782Z,24.16
2022-11-02T08:15:10.192Z,24.12
2022-11-02T08:16:05.773Z,24.15
2022-11-02T08:17:04.747Z,24.13
2022-11-02T08:18:05.063Z,24.16
2022-11-02T08:19:04.716Z,24.13
2022-11-02T08:20:04.690Z,24.13
2022-11-02T08:21:04.692Z,24.13
2022-11-02T08:22:04.714Z,24.12
2022-11-02T08:23:04.650Z,24.10
2022-11-02T08:24:04.637Z,24.15
2022-11-02T08:25:04.820Z,24.16
2022-11-02T08:26:04.634Z,24.16
2022-11-02T08:27:04.590Z,24.16
2022-11-02T08:28:04.979Z,24.16
2022-11-02T08:29:04.596Z,24.15
2022-11-02T08:30:04.557Z,24.16
2022-11-02T08:31:04.566Z,24.12
2022-11-02T08:32:04.519Z,24.13
2022-11-02T08:33:04.511Z,24.12
2022-11-02T08:34:04.664Z,24.13
2022-11-02T08:35:04.488Z,24.12
2022-11-02T08:36:04.464Z,24.16
2022-11-02T08:37:04.459Z,24.16
2022-11-02T08:38:04.688Z,24.15
2022-11-02T08:39:04.529Z,24.13
2022-11-02T08:40:04.675Z,24.18
2022-11-02T08:41:04.567Z,24.16
2022-11-02T08:42:04.389Z,24.15
2022-11-02T08:43:04.391Z,24.13
2022-11-02T08:44:04.372Z,24.16
2022-11-02T08:45:04.346Z,24.18
2022-11-02T08:46:19.908Z,24.15
2022-11-02T08:47:08.447Z,24.16
2022-11-02T08:48:04.489Z,24.16
2022-11-02T08:49:04.345Z,24.18
2022-11-02T08:50:04.267Z,24.16
2022-11-02T08:51:04.271Z,24.16
2022-11-02T08:52:04.574Z,24.18
2022-11-02T08:53:04.245Z,24.16
2022-11-02T08:54:04.219Z,24.16
2022-11-02T08:55:04.224Z,24.18
2022-11-02T08:56:04.181Z,24.16
2022-11-02T08:57:04.178Z,24.18
2022-11-02T08:58:04.485Z,24.18
2022-11-02T08:59:04.143Z,24.20
2022-11-02T09:00:04.129Z,24.18
2022-11-02T09:01:04.129Z,24.20
2022-11-02T09:02:04.286Z,24.16
2022-11-02T09:03:04.270Z,24.18
2022-11-02T09:04:04.119Z,24.20
2022-11-02T09:05:04.070Z,24.20
2022-11-02T09:06:04.041Z,24.21
2022-11-02T09:07:04.058Z,24.21
2022-11-02T09:08:04.358Z,24.22
2022-11-02T09:09:04.377Z,24.20
2022-11-02T09:10:04.036Z,24.21
2022-11-02T09:11:03.996Z,24.21
2022-11-02T09:12:03.987Z,24.20
2022-11-02T09:13:04.345Z,24.20
2022-11-02T09:14:04.008Z,24.20
2022-11-02T09:15:04.020Z,24.16
2022-11-02T09:16:03.958Z,24.18
2022-11-02T09:17:03.940Z,24.16
2022-11-02T09:18:04.282Z,24.16
2022-11-02T09:19:03.910Z,24.15
2022-11-02T09:20:03.899Z,24.13
2022-11-02T09:21:03.875Z,24.13
2022-11-02T09:22:05.880Z,24.12
2022-11-02T09:23:03.861Z,24.13
2022-11-02T09:24:03.886Z,24.13
2022-11-02T09:25:03.839Z,24.10
2022-11-02T09:26:03.797Z,24.12
2022-11-02T09:27:03.963Z,24.10
2022-11-02T09:28:04.009Z,24.08
2022-11-02T09:29:03.765Z,24.08
2022-11-02T09:30:03.745Z,24.08
2022-11-02T09:31:06.061Z,24.10
2022-11-02T09:32:04.689Z,24.09
2022-11-02T09:33:04.019Z,24.08
2022-11-02T09:34:03.732Z,24.06
2022-11-02T09:35:03.756Z,24.03
2022-11-02T09:36:03.660Z,24.05
2022-11-02T09:37:03.699Z,24.02
2022-11-02T09:38:03.616Z,24.03
2022-11-02T09:39:03.830Z,24.06
2022-11-02T09:40:03.621Z,24.03
2022-11-02T09:41:03.654Z,24.02
2022-11-02T09:42:03.543Z,24.03
2022-11-02T09:43:04.175Z,24.03
2022-11-02T09:44:03.594Z,24.05
2022-11-02T09:45:03.625Z,24.03
2022-11-02T09:46:03.574Z,24.02
2022-11-02T09:47:55.721Z,24.02
2022-11-02T09:48:16.413Z,24.05
2022-11-02T09:49:04.473Z,24.03
2022-11-02T09:50:03.438Z,24.03
2022-11-02T09:51:03.468Z,24.03
2022-11-02T09:52:03.557Z,24.05
2022-11-02T09:53:03.683Z,24.05
2022-11-02T09:54:03.441Z,24.08
2022-11-02T09:55:03.367Z,24.05
2022-11-02T09:56:03.391Z,24.03
2022-11-02T09:57:03.336Z,24.08
2022-11-02T09:58:03.841Z,24.08
2022-11-02T09:59:03.304Z,24.08
2022-11-02T10:00:03.304Z,24.10
2022-11-02T10:01:03.278Z,24.12
2022-11-02T10:02:03.303Z,24.10
2022-11-02T10:03:03.279Z,24.12
2022-11-02T10:04:03.309Z,24.12
2022-11-02T10:05:03.241Z,24.12
2022-11-02T10:06:03.230Z,24.13
2022-11-02T10:07:03.236Z,24.12
2022-11-02T10:08:03.589Z,24.13
2022-11-02T10:09:03.198Z,24.18
2022-11-02T10:10:03.218Z,24.16
2022-11-02T10:11:07.869Z,24.16
2022-11-02T10:12:04.153Z,24.20
2022-11-02T10:13:03.512Z,24.18
2022-11-02T10:14:03.108Z,24.20
2022-11-02T10:15:03.089Z,24.20
2022-11-02T10:16:03.132Z,24.22
2022-11-02T10:17:03.085Z,24.24
2022-11-02T10:18:03.065Z,24.24
2022-11-02T10:19:03.134Z,24.24
2022-11-02T10:20:03.025Z,24.25
2022-11-02T10:21:03.035Z,24.25
2022-11-02T10:22:03.155Z,24.25
2022-11-02T10:23:03.376Z,24.24
2022-11-02T10:24:02.966Z,24.25
2022-11-02T10:25:02.969Z,24.25
2022-11-02T10:26:03.016Z,24.25
2022-11-02T10:27:02.993Z,24.28
2022-11-02T10:28:03.056Z,24.28
2022-11-02T10:29:02.985Z,24.30
2022-11-02T10:30:02.943Z,24.30
2022-11-02T10:31:02.928Z,24.30
2022-11-02T10:32:02.883Z,24.30
2022-11-02T10:33:03.140Z,24.32
2022-11-02T10:34:02.923Z,24.31
2022-11-02T10:35:25.299Z,24.32
2022-11-02T10:36:17.651Z,24.34
2022-11-02T10:37:03.844Z,24.34
2022-11-02T10:38:03.181Z,24.37
2022-11-02T10:39:02.796Z,24.34
2022-11-02T10:40:02.900Z,24.34
2022-11-02T10:41:02.780Z,24.34
2022-11-02T10:42:02.732Z,24.37
2022-11-02T10:43:02.769Z,24.37
2022-11-02T10:44:02.689Z,24.40
2022-11-02T10:45:02.691Z,24.40
2022-11-02T10:46:02.688Z,24.39
2022-11-02T10:47:02.678Z,24.39
2022-11-02T10:48:03.082Z,24.43
2022-11-02T10:49:02.627Z,24.40
2022-11-02T10:50:02.619Z,24.39
2022-11-02T10:51:02.648Z,24.42
2022-11-02T10:52:02.672Z,24.39
2022-11-02T10:53:27.406Z,24.43
2022-11-02T10:54:03.667Z,24.45
2022-11-02T10:55:02.537Z,24.43
2022-11-02T10:56:02.566Z,24.42
2022-11-02T10:57:02.528Z,24.45
2022-11-02T10:58:03.120Z,24.46
2022-11-02T10:59:02.484Z,24.46
2022-11-02T11:00:02.485Z,24.49
2022-11-02T11:01:02.499Z,24.52
2022-11-02T11:02:02.477Z,24.52
2022-11-02T11:03:02.458Z,24.53
2022-11-02T11:04:03.501Z,24.52
2022-11-02T11:05:02.417Z,24.53
2022-11-02T11:06:02.429Z,24.53
2022-11-02T11:07:02.375Z,24.52
2022-11-02T11:08:02.869Z,24.53
2022-11-02T11:09:02.369Z,24.52
2022-11-02T11:10:02.394Z,24.52
2022-11-02T11:11:02.370Z,24.50
2022-11-02T11:12:02.380Z,24.50
2022-11-02T11:13:02.303Z,24.53
2022-11-02T11:16:03.280Z,24.52
2022-11-02T11:20:06.949Z,24.53
2022-11-02T11:21:02.203Z,24.47
2022-11-02T11:22:02.184Z,24.52
2022-11-02T11:23:02.576Z,24.52
2022-11-02T11:24:02.200Z,24.49
2022-11-02T11:25:02.115Z,24.50
2022-11-02T11:26:02.144Z,24.52
2022-11-02T11:27:02.339Z,24.49
2022-11-02T11:28:02.307Z,24.52
2022-11-02T11:29:02.052Z,24.53
2022-11-02T11:30:02.062Z,24.52
2022-11-02T11:31:02.033Z,24.53
2022-11-02T11:32:02.009Z,24.53
2022-11-02T11:33:02.024Z,24.53
2022-11-02T11:34:01.991Z,24.55
2022-11-02T11:35:01.993Z,24.53
2022-11-02T11:36:01.964Z,24.53
2022-11-02T11:37:01.981Z,24.55
2022-11-02T11:38:02.135Z,24.57
2022-11-02T11:39:01.975Z,24.55
2022-11-02T11:40:01.910Z,24.55
2022-11-02T11:41:02.075Z,24.55
2022-11-02T11:42:01.879Z,24.53
2022-11-02T11:43:02.574Z,24.57
2022-11-02T11:44:01.853Z,24.57
2022-11-02T11:45:01.875Z,24.57
2022-11-02T11:46:05.865Z,24.53
2022-11-02T11:47:01.825Z,24.55
2022-11-02T11:48:02.050Z,24.55
2022-11-02T11:49:01.785Z,24.55
2022-11-02T11:50:10.683Z,24.57
2022-11-02T11:51:02.770Z,24.57
2022-11-02T11:52:01.764Z,24.57
2022-11-02T11:53:01.865Z,24.58
2022-11-02T11:54:01.715Z,24.58
2022-11-02T11:55:01.730Z,24.60
2022-11-02T11:56:01.670Z,24.58
2022-11-02T11:57:01.776Z,24.55
2022-11-02T11:58:01.981Z,24.58
2022-11-02T11:59:01.688Z,24.60
2022-11-02T12:00:01.664Z,24.58
2022-11-02T12:01:04.550Z,24.57
2022-11-02T12:02:03.855Z,24.60
2022-11-02T12:03:01.721Z,24.61
2022-11-02T12:04:01.600Z,24.61
2022-11-02T12:05:01.570Z,24.62
2022-11-02T12:06:01.555Z,24.61
2022-11-02T12:07:01.607Z,24.64
2022-11-02T12:08:01.720Z,24.62
2022-11-02T12:09:04.432Z,24.62
2022-11-02T12:10:01.539Z,24.62
2022-11-02T12:11:01.469Z,24.60
2022-11-02T12:12:01.463Z,24.64
2022-11-02T12:13:01.475Z,24.64
2022-11-02T12:14:01.511Z,24.65
2022-11-02T12:15:06.603Z,24.65
2022-11-02T12:16:02.399Z,24.62
2022-11-02T12:17:01.477Z,24.65
2022-11-02T12:18:01.427Z,24.65
2022-11-02T12:19:01.391Z,24.65
2022-11-02T12:20:01.512Z,24.68
2022-11-02T12:21:01.361Z,24.68
2022-11-02T12:22:01.339Z,24.68
2022-11-02T12:23:01.325Z,24.67
2022-11-02T12:24:01.332Z,24.65
2022-11-02T12:25:01.287Z,24.67
2022-11-02T12:26:04.828Z,24.69
2022-11-02T12:27:01.314Z,24.69
2022-11-02T12:28:01.258Z,24.71
2022-11-02T12:29:01.260Z,24.69
2022-11-02T12:30:01.245Z,24.71
2022-11-02T12:31:01.219Z,24.71
2022-11-02T12:32:01.257Z,24.76
2022-11-02T12:33:01.228Z,24.76
2022-11-02T12:34:01.169Z,24.76
2022-11-02T12:35:30.958Z,24.76
2022-11-02T12:36:02.134Z,24.77
2022-11-02T12:38:02.221Z,24.77
2022-11-02T12:39:01.155Z,24.77
2022-11-02T12:40:01.125Z,24.78
2022-11-02T12:41:01.038Z,24.77
2022-11-02T12:42:01.179Z,24.78
2022-11-02T12:43:01.016Z,24.80
2022-11-02T12:44:01.058Z,24.81
2022-11-02T12:45:00.993Z,24.83
2022-11-02T12:46:00.987Z,24.85
2022-11-02T12:47:00.969Z,24.85
2022-11-02T12:48:00.963Z,24.85
2022-11-02T12:49:00.949Z,24.88
2022-11-02T12:50:00.968Z,24.88
2022-11-02T12:51:00.928Z,24.88
2022-11-02T12:52:00.907Z,24.87
2022-11-02T12:53:00.890Z,24.90
2022-11-02T12:54:00.868Z,24.85
2022-11-02T12:55:00.856Z,24.87
2022-11-02T12:56:00.869Z,24.91
2022-11-02T12:57:00.853Z,24.90
2022-11-02T12:58:00.820Z,24.93
2022-11-02T12:59:00.817Z,24.95
2022-11-02T13:00:00.795Z,24.96